Time;durP1;ratioP1;P1;durP2;ratioP2;P2;SDS_P1;SDS_P2;PMS_P1;PMS_P2;Temp;Humidity;BMP_temperature;BMP_pressure;BME280_temperature;BME280_humidity;BME280_pressure;Samples;Min_cycle;Max_cycle;Signal;HPM_P1;HPM_P2
2023/02/12 00:02:15;;;;;;;29.43;22.17;;;;;;;;;;5020061;28;20766;-55
2023/02/12 00:04:41;;;;;;;32.73;21.80;;;;;;;;;;5022731;28;20796;-55
2023/02/12 00:07:08;;;;;;;31.27;21.03;;;;;;;;;;5015486;28;20546;-55
2023/02/12 00:09:34;;;;;;;29.00;21.50;;;;;;;;;;5015853;28;20186;-56
2023/02/12 00:12:00;;;;;;;32.60;21.47;;;;;;;;;;5020317;28;20677;-55
2023/02/12 00:14:29;;;;;;;26.23;20.20;;;;;;;;;;5016309;28;20183;-55
2023/02/12 00:16:55;;;;;;;27.90;19.80;;;;;;;;;;5026650;28;20195;-53
2023/02/12 00:19:22;;;;;;;28.83;21.80;;;;;;;;;;5019995;28;20179;-54
2023/02/12 00:21:48;;;;;;;33.90;21.57;;;;;;;;;;5016865;28;20187;-55
2023/02/12 00:24:15;;;;;;;25.03;19.33;;;;;;;;;;5015645;28;21012;-55
2023/02/12 00:26:41;;;;;;;27.60;20.03;;;;;;;;;;5015303;28;20183;-55
2023/02/12 00:29:07;;;;;;;28.77;20.67;;;;;;;;;;5015275;28;20277;-55
2023/02/12 00:31:33;;;;;;;26.47;19.97;;;;;;;;;;5012333;28;20202;-55
2023/02/12 00:33:59;;;;;;;26.97;20.37;;;;;;;;;;5015468;28;20174;-55
2023/02/12 00:36:26;;;;;;;26.27;20.73;;;;;;;;;;5016510;28;20230;-55
2023/02/12 00:38:53;;;;;;;28.43;21.53;;;;;;;;;;5022084;28;20178;-55
2023/02/12 00:41:20;;;;;;;26.83;20.13;;;;;;;;;;5013694;28;20647;-55
2023/02/12 00:43:47;;;;;;;30.30;20.70;;;;;;;;;;5015341;28;20210;-55
2023/02/12 00:46:13;;;;;;;29.67;21.13;;;;;;;;;;5017628;28;20213;-55
2023/02/12 00:48:39;;;;;;;28.40;20.67;;;;;;;;;;5018669;28;20181;-55
2023/02/12 00:51:06;;;;;;;26.37;20.47;;;;;;;;;;5015233;28;20209;-56
2023/02/12 00:53:32;;;;;;;26.63;20.33;;;;;;;;;;5022996;28;20213;-54
2023/02/12 00:55:58;;;;;;;24.73;19.43;;;;;;;;;;5015095;28;20292;-56
2023/02/12 00:58:24;;;;;;;27.90;20.30;;;;;;;;;;5024486;28;20182;-57
2023/02/12 01:00:51;;;;;;;26.67;20.07;;;;;;;;;;5018497;28;20216;-56
2023/02/12 01:03:17;;;;;;;26.30;19.00;;;;;;;;;;5019187;28;20237;-55
2023/02/12 01:05:43;;;;;;;28.63;20.47;;;;;;;;;;5017223;28;20192;-55
2023/02/12 01:08:12;;;;;;;27.17;19.73;;;;;;;;;;5013179;28;20186;-55
2023/02/12 01:10:38;;;;;;;29.40;19.90;;;;;;;;;;5015854;28;20224;-54
2023/02/12 01:13:04;;;;;;;29.17;20.77;;;;;;;;;;5014325;28;20182;-55
2023/02/12 01:15:30;;;;;;;25.37;20.17;;;;;;;;;;5020671;28;20181;-55
2023/02/12 01:17:56;;;;;;;27.07;20.07;;;;;;;;;;5019768;28;20779;-54
2023/02/12 01:20:23;;;;;;;26.50;20.13;;;;;;;;;;5020100;28;20537;-55
2023/02/12 01:22:49;;;;;;;25.80;19.97;;;;;;;;;;5025962;28;20162;-54
2023/02/12 01:25:15;;;;;;;28.67;20.63;;;;;;;;;;5018841;28;20190;-55
2023/02/12 01:27:41;;;;;;;26.60;20.13;;;;;;;;;;5012526;28;20232;-55
2023/02/12 01:30:09;;;;;;;25.87;19.50;;;;;;;;;;5016573;28;20183;-55
2023/02/12 01:32:35;;;;;;;28.00;18.87;;;;;;;;;;5018053;28;20189;-55
2023/02/12 01:35:01;;;;;;;26.50;19.40;;;;;;;;;;5016895;28;20175;-55
2023/02/12 01:37:27;;;;;;;25.67;20.20;;;;;;;;;;5016230;28;20175;-54
2023/02/12 01:39:53;;;;;;;24.53;18.00;;;;;;;;;;5017696;28;20216;-55
2023/02/12 01:42:19;;;;;;;24.73;20.03;;;;;;;;;;5018114;28;20336;-55
2023/02/12 01:45:06;;;;;;;25.20;19.60;;;;;;;;;;5023955;28;20185;-56
2023/02/12 01:47:32;;;;;;;27.03;19.00;;;;;;;;;;5009762;28;20511;-55
2023/02/12 01:49:58;;;;;;;24.73;19.00;;;;;;;;;;5021045;28;20177;-56
2023/02/12 01:52:29;;;;;;;27.33;19.93;;;;;;;;;;5014793;28;20194;-55
2023/02/12 01:54:58;;;;;;;24.87;17.70;;;;;;;;;;5028204;28;20174;-55
2023/02/12 01:57:24;;;;;;;25.83;19.13;;;;;;;;;;5010787;28;20170;-54
2023/02/12 01:59:51;;;;;;;28.83;20.33;;;;;;;;;;5024582;28;20252;-55
2023/02/12 02:02:17;;;;;;;26.80;18.83;;;;;;;;;;5014514;28;20869;-55
2023/02/12 02:04:46;;;;;;;25.43;18.70;;;;;;;;;;5011176;28;20189;-55
2023/02/12 02:07:12;;;;;;;27.00;18.23;;;;;;;;;;5018875;28;20182;-55
2023/02/12 02:09:38;;;;;;;27.67;19.87;;;;;;;;;;5015879;28;20708;-55
2023/02/12 02:14:51;;;;;;;25.63;18.73;;;;;;;;;;5017959;28;20999;-55
2023/02/12 02:17:33;;;;;;;22.93;18.07;;;;;;;;;;5020054;28;20190;-55
2023/02/12 02:20:05;;;;;;;25.13;18.07;;;;;;;;;;5013304;28;20622;-56
2023/02/12 02:22:34;;;;;;;24.80;19.27;;;;;;;;;;5025807;28;20537;-55
2023/02/12 02:25:17;;;;;;;22.83;17.83;;;;;;;;;;5022996;28;20173;-55
2023/02/12 02:28:09;;;;;;;24.30;17.53;;;;;;;;;;5019770;28;20673;-55
2023/02/12 02:30:47;;;;;;;24.00;17.40;;;;;;;;;;5018064;28;20178;-56
2023/02/12 02:33:22;;;;;;;27.57;18.33;;;;;;;;;;5021388;28;20181;-55
2023/02/12 02:35:53;;;;;;;27.30;18.93;;;;;;;;;;5020170;28;20184;-55
2023/02/12 02:38:25;;;;;;;23.10;17.47;;;;;;;;;;5015097;28;20716;-55
2023/02/12 02:40:57;;;;;;;27.07;20.27;;;;;;;;;;5010134;28;20705;-55
2023/02/12 02:43:27;;;;;;;24.13;18.30;;;;;;;;;;5020443;28;20182;-55
2023/02/12 02:45:59;;;;;;;25.43;18.60;;;;;;;;;;5025823;28;20182;-55
2023/02/12 02:48:28;;;;;;;27.97;19.37;;;;;;;;;;5019120;28;20570;-55
2023/02/12 02:50:59;;;;;;;25.93;18.83;;;;;;;;;;5015099;28;20197;-55
2023/02/12 02:53:28;;;;;;;27.10;18.77;;;;;;;;;;5017547;28;20178;-55
2023/02/12 02:55:56;;;;;;;26.23;19.03;;;;;;;;;;5009338;28;20206;-55
2023/02/12 02:58:28;;;;;;;22.73;17.57;;;;;;;;;;5016117;28;20544;-55
2023/02/12 03:01:09;;;;;;;27.60;19.17;;;;;;;;;;5009995;28;20186;-55
2023/02/12 03:03:40;;;;;;;23.60;17.70;;;;;;;;;;5017779;28;20232;-55
2023/02/12 03:06:09;;;;;;;24.53;18.80;;;;;;;;;;5012928;28;20190;-56
2023/02/12 03:08:48;;;;;;;27.57;19.13;;;;;;;;;;5019251;28;20269;-55
2023/02/12 03:11:16;;;;;;;23.43;17.63;;;;;;;;;;5013285;28;20562;-55
2023/02/12 03:13:45;;;;;;;27.33;18.30;;;;;;;;;;5018443;28;20210;-55
2023/02/12 03:16:23;;;;;;;26.50;18.30;;;;;;;;;;5019118;28;20202;-55
2023/02/12 03:18:55;;;;;;;23.07;17.67;;;;;;;;;;5014854;28;20182;-55
2023/02/12 03:21:27;;;;;;;25.20;18.37;;;;;;;;;;5013830;28;20185;-55
2023/02/12 03:24:00;;;;;;;25.63;18.10;;;;;;;;;;5020042;28;20182;-55
2023/02/12 03:26:47;;;;;;;24.43;18.23;;;;;;;;;;5013386;28;20252;-55
2023/02/12 03:29:13;;;;;;;23.83;18.33;;;;;;;;;;5020271;28;20704;-55
2023/02/12 03:31:55;;;;;;;24.40;18.13;;;;;;;;;;5020244;28;20207;-55
2023/02/12 03:34:23;;;;;;;23.47;17.97;;;;;;;;;;5015721;28;20193;-55
2023/02/12 03:36:56;;;;;;;22.70;17.93;;;;;;;;;;5015598;28;20174;-55
2023/02/12 03:39:41;;;;;;;23.50;17.47;;;;;;;;;;5023744;28;20677;-54
2023/02/12 03:42:09;;;;;;;26.13;19.20;;;;;;;;;;5018690;28;20546;-55
2023/02/12 03:44:35;;;;;;;23.03;18.17;;;;;;;;;;5023842;28;21446;-55
2023/02/12 03:47:11;;;;;;;24.53;18.40;;;;;;;;;;5025248;28;20633;-55
2023/02/12 03:49:43;;;;;;;24.40;18.63;;;;;;;;;;5016547;28;20178;-55
2023/02/12 03:52:09;;;;;;;24.33;16.30;;;;;;;;;;5014756;28;20213;-54
2023/02/12 03:54:35;;;;;;;21.70;16.17;;;;;;;;;;5017214;28;20261;-54
2023/02/12 03:57:05;;;;;;;23.03;17.93;;;;;;;;;;5023175;28;20199;-55
2023/02/12 03:59:32;;;;;;;24.23;17.77;;;;;;;;;;5022106;28;20244;-55
2023/02/12 04:01:59;;;;;;;24.20;16.73;;;;;;;;;;5013370;28;20182;-55
2023/02/12 04:04:25;;;;;;;23.53;16.97;;;;;;;;;;5024762;28;20556;-55
2023/02/12 04:06:52;;;;;;;26.17;17.50;;;;;;;;;;5016687;28;20374;-56
2023/02/12 04:09:18;;;;;;;21.47;16.87;;;;;;;;;;5026813;28;20201;-55
2023/02/12 04:12:08;;;;;;;25.23;17.70;;;;;;;;;;5018968;28;20764;-55
2023/02/12 04:14:52;;;;;;;20.17;16.00;;;;;;;;;;5025605;28;20193;-55
2023/02/12 04:17:39;;;;;;;22.73;18.07;;;;;;;;;;5016149;28;20562;-55
2023/02/12 04:20:14;;;;;;;22.13;16.67;;;;;;;;;;5022766;28;20634;-55
2023/02/12 04:22:48;;;;;;;24.17;17.37;;;;;;;;;;5024326;28;20272;-55
2023/02/12 04:25:21;;;;;;;22.53;17.10;;;;;;;;;;5014062;28;20739;-56
2023/02/12 04:28:06;;;;;;;24.20;16.97;;;;;;;;;;5018858;28;20665;-56
2023/02/12 04:30:37;;;;;;;21.10;17.00;;;;;;;;;;5020225;28;20205;-55
2023/02/12 04:33:04;;;;;;;22.87;17.60;;;;;;;;;;5024373;28;20544;-55
2023/02/12 04:35:40;;;;;;;22.77;16.93;;;;;;;;;;5023663;28;20228;-55
2023/02/12 04:38:21;;;;;;;21.60;17.43;;;;;;;;;;5025322;28;20402;-54
2023/02/12 04:40:47;;;;;;;21.57;16.33;;;;;;;;;;5017522;28;20692;-56
2023/02/12 04:43:13;;;;;;;23.07;16.90;;;;;;;;;;5014217;28;20550;-55
2023/02/12 04:45:39;;;;;;;21.83;16.80;;;;;;;;;;5014141;28;20190;-56
2023/02/12 04:48:06;;;;;;;24.63;18.60;;;;;;;;;;5020107;28;20212;-55
2023/02/12 04:50:40;;;;;;;23.73;17.50;;;;;;;;;;5020524;28;20285;-55
2023/02/12 04:53:06;;;;;;;23.00;17.33;;;;;;;;;;5021819;28;20181;-55
2023/02/12 04:55:32;;;;;;;23.50;17.40;;;;;;;;;;5021770;28;20201;-55
2023/02/12 04:57:58;;;;;;;22.87;17.57;;;;;;;;;;5025879;28;20703;-55
2023/02/12 05:00:24;;;;;;;23.00;16.60;;;;;;;;;;5017366;28;20178;-55
2023/02/12 05:02:50;;;;;;;24.70;17.63;;;;;;;;;;5014760;28;20708;-55
2023/02/12 05:05:16;;;;;;;25.13;17.53;;;;;;;;;;5027558;28;20633;-54
2023/02/12 05:07:42;;;;;;;22.83;16.20;;;;;;;;;;5024056;28;20225;-55
2023/02/12 05:10:09;;;;;;;22.70;17.73;;;;;;;;;;5017209;28;20202;-56
2023/02/12 05:12:35;;;;;;;23.77;18.13;;;;;;;;;;5012597;28;20736;-54
2023/02/12 05:15:01;;;;;;;25.10;18.13;;;;;;;;;;5027061;28;20202;-54
2023/02/12 05:17:27;;;;;;;25.73;18.73;;;;;;;;;;5021514;28;20638;-54
2023/02/12 05:19:53;;;;;;;24.93;16.83;;;;;;;;;;5029719;28;20550;-55
2023/02/12 05:22:19;;;;;;;23.53;17.97;;;;;;;;;;5030392;28;20701;-55
2023/02/12 05:24:45;;;;;;;24.43;17.00;;;;;;;;;;5015420;28;20233;-55
2023/02/12 05:27:11;;;;;;;25.60;18.53;;;;;;;;;;5015681;28;20232;-55
2023/02/12 05:29:37;;;;;;;23.23;17.37;;;;;;;;;;5018778;28;20575;-55
2023/02/12 05:32:05;;;;;;;22.37;16.80;;;;;;;;;;5014452;28;20208;-55
2023/02/12 05:34:31;;;;;;;23.60;18.20;;;;;;;;;;5014206;28;21379;-55
2023/02/12 05:36:57;;;;;;;22.13;16.23;;;;;;;;;;5021472;28;20270;-55
2023/02/12 05:39:23;;;;;;;24.30;17.70;;;;;;;;;;5014874;28;20661;-55
2023/02/12 05:41:49;;;;;;;23.67;17.13;;;;;;;;;;5010827;28;20179;-55
2023/02/12 05:44:16;;;;;;;23.17;17.23;;;;;;;;;;5020228;28;20182;-55
2023/02/12 05:46:42;;;;;;;24.27;18.20;;;;;;;;;;5022067;28;20175;-55
2023/02/12 05:49:08;;;;;;;22.30;16.60;;;;;;;;;;5013867;28;20189;-55
2023/02/12 05:51:34;;;;;;;20.57;15.73;;;;;;;;;;5016391;28;20222;-55
2023/02/12 05:54:02;;;;;;;24.60;17.30;;;;;;;;;;5011371;28;20162;-55
2023/02/12 05:56:33;;;;;;;21.67;17.20;;;;;;;;;;5021413;28;20214;-55
2023/02/12 05:59:02;;;;;;;22.67;16.47;;;;;;;;;;5011214;28;20178;-55
2023/02/12 06:01:48;;;;;;;24.53;17.43;;;;;;;;;;5021156;28;20217;-56
2023/02/12 06:04:24;;;;;;;21.40;16.50;;;;;;;;;;5017567;28;20223;-56
2023/02/12 06:06:51;;;;;;;22.03;17.00;;;;;;;;;;5013411;28;20185;-55
2023/02/12 06:09:17;;;;;;;29.03;17.53;;;;;;;;;;5012192;28;20190;-55
2023/02/12 06:11:44;;;;;;;25.93;17.50;;;;;;;;;;5023726;28;20213;-55
2023/02/12 06:14:12;;;;;;;22.13;16.80;;;;;;;;;;5018871;28;20630;-55
2023/02/12 06:16:38;;;;;;;24.03;17.13;;;;;;;;;;5021644;28;20169;-55
2023/02/12 06:19:04;;;;;;;23.37;16.47;;;;;;;;;;5020341;28;20265;-55
2023/02/12 06:21:31;;;;;;;22.53;16.93;;;;;;;;;;5016320;28;20638;-55
2023/02/12 06:23:57;;;;;;;24.10;17.67;;;;;;;;;;5013908;28;20185;-56
2023/02/12 06:26:24;;;;;;;24.77;17.10;;;;;;;;;;5023210;28;20232;-55
2023/02/12 06:28:50;;;;;;;22.80;17.57;;;;;;;;;;5013184;28;20593;-55
2023/02/12 06:31:26;;;;;;;21.13;16.37;;;;;;;;;;5011837;28;20752;-55
2023/02/12 06:33:53;;;;;;;24.70;16.17;;;;;;;;;;5016388;28;20178;-55
2023/02/12 06:36:20;;;;;;;23.50;16.87;;;;;;;;;;5019881;28;20209;-55
2023/02/12 06:38:46;;;;;;;22.60;17.60;;;;;;;;;;5010704;28;20273;-55
2023/02/12 06:41:13;;;;;;;24.23;18.17;;;;;;;;;;5011951;28;20280;-55
2023/02/12 06:43:39;;;;;;;23.40;17.27;;;;;;;;;;5018214;28;20569;-55
2023/02/12 06:46:06;;;;;;;23.50;17.33;;;;;;;;;;5018097;28;20469;-56
2023/02/12 06:48:32;;;;;;;23.63;17.70;;;;;;;;;;5021911;28;20668;-55
2023/02/12 06:51:05;;;;;;;22.87;17.10;;;;;;;;;;5024657;28;20633;-55
2023/02/12 06:53:33;;;;;;;22.37;16.87;;;;;;;;;;5013486;28;20174;-55
2023/02/12 06:56:00;;;;;;;22.80;15.87;;;;;;;;;;5016349;28;20653;-55
2023/02/12 06:58:26;;;;;;;23.67;16.70;;;;;;;;;;5010650;28;20236;-56
2023/02/12 07:00:52;;;;;;;20.33;16.40;;;;;;;;;;5011274;28;20650;-56
2023/02/12 07:03:18;;;;;;;23.33;17.27;;;;;;;;;;5011934;28;20268;-55
2023/02/12 07:05:45;;;;;;;23.13;16.67;;;;;;;;;;5016120;28;20221;-55
2023/02/12 07:08:11;;;;;;;21.70;16.47;;;;;;;;;;5025447;28;20227;-55
2023/02/12 07:10:37;;;;;;;24.67;17.77;;;;;;;;;;5033766;28;20192;-55
2023/02/12 07:13:04;;;;;;;24.90;17.77;;;;;;;;;;5023196;28;20201;-55
2023/02/12 07:15:30;;;;;;;22.00;16.50;;;;;;;;;;5023802;28;20580;-55
2023/02/12 07:17:56;;;;;;;22.07;16.60;;;;;;;;;;5027813;28;20177;-56
2023/02/12 07:20:22;;;;;;;22.83;16.90;;;;;;;;;;5028284;28;20174;-55
2023/02/12 07:22:49;;;;;;;23.37;17.17;;;;;;;;;;5014602;28;20190;-55
2023/02/12 07:25:15;;;;;;;22.63;17.07;;;;;;;;;;5027080;28;20197;-55
2023/02/12 07:27:41;;;;;;;19.33;15.43;;;;;;;;;;5028174;28;20178;-55
2023/02/12 07:30:07;;;;;;;23.13;16.43;;;;;;;;;;5030370;28;20185;-55
2023/02/12 07:32:34;;;;;;;23.40;16.37;;;;;;;;;;5025462;28;20293;-56
2023/02/12 07:35:00;;;;;;;25.43;17.20;;;;;;;;;;5019305;28;20174;-55
2023/02/12 07:37:26;;;;;;;22.20;16.13;;;;;;;;;;5017724;28;20574;-55
2023/02/12 07:39:52;;;;;;;23.00;16.93;;;;;;;;;;5020187;28;20683;-55
2023/02/12 07:42:18;;;;;;;21.43;16.90;;;;;;;;;;5015158;28;20210;-55
2023/02/12 07:44:44;;;;;;;22.13;16.10;;;;;;;;;;5018100;28;20224;-56
2023/02/12 07:47:10;;;;;;;24.20;16.80;;;;;;;;;;5017132;28;20186;-55
2023/02/12 07:49:37;;;;;;;23.30;16.03;;;;;;;;;;5020602;28;20244;-56
2023/02/12 07:52:03;;;;;;;22.67;16.23;;;;;;;;;;5022841;28;20271;-55
2023/02/12 07:54:29;;;;;;;25.10;18.20;;;;;;;;;;5018084;28;20186;-55
2023/02/12 07:56:55;;;;;;;21.73;17.87;;;;;;;;;;5020325;28;20194;-55
2023/02/12 07:59:21;;;;;;;24.43;17.53;;;;;;;;;;5016418;28;20186;-55
2023/02/12 08:01:48;;;;;;;22.13;16.90;;;;;;;;;;5025489;28;20181;-56
2023/02/12 08:04:15;;;;;;;23.07;17.27;;;;;;;;;;5028264;28;20229;-55
2023/02/12 08:06:43;;;;;;;24.13;17.37;;;;;;;;;;5014951;28;20339;-55
2023/02/12 08:09:10;;;;;;;25.83;17.37;;;;;;;;;;5022502;28;20664;-55
2023/02/12 08:11:37;;;;;;;24.17;16.63;;;;;;;;;;5025532;28;20204;-55
2023/02/12 08:14:04;;;;;;;24.17;17.77;;;;;;;;;;5023740;28;20561;-55
2023/02/12 08:16:31;;;;;;;25.30;18.70;;;;;;;;;;5019110;28;20197;-55
2023/02/12 08:18:58;;;;;;;22.00;17.53;;;;;;;;;;4997732;28;20319;-55
2023/02/12 08:21:25;;;;;;;22.60;16.33;;;;;;;;;;5016367;28;20592;-55
2023/02/12 08:23:52;;;;;;;25.20;18.67;;;;;;;;;;5017875;28;20182;-55
2023/02/12 08:26:23;;;;;;;26.83;18.13;;;;;;;;;;5020947;28;20266;-55
2023/02/12 08:28:52;;;;;;;26.53;18.77;;;;;;;;;;5019497;28;20298;-55
2023/02/12 08:31:23;;;;;;;31.90;21.47;;;;;;;;;;5017212;28;20202;-55
2023/02/12 08:33:53;;;;;;;25.30;19.20;;;;;;;;;;5020657;28;20257;-55
2023/02/12 08:36:20;;;;;;;33.53;21.03;;;;;;;;;;5019645;28;20224;-54
2023/02/12 08:38:47;;;;;;;30.57;20.70;;;;;;;;;;5020359;28;20182;-55
2023/02/12 08:41:15;;;;;;;26.40;19.77;;;;;;;;;;5021480;28;20960;-55
2023/02/12 08:43:41;;;;;;;29.80;21.43;;;;;;;;;;5012175;28;20220;-55
2023/02/12 08:46:09;;;;;;;29.03;21.10;;;;;;;;;;5018517;28;20245;-55
2023/02/12 08:48:35;;;;;;;30.07;21.07;;;;;;;;;;5018068;28;20633;-55
2023/02/12 08:51:06;;;;;;;28.20;20.40;;;;;;;;;;5022128;28;20590;-55
2023/02/12 08:53:32;;;;;;;30.87;21.10;;;;;;;;;;5022516;28;20173;-55
2023/02/12 08:55:58;;;;;;;31.13;20.33;;;;;;;;;;5023977;28;20324;-55
2023/02/12 08:58:24;;;;;;;32.13;21.43;;;;;;;;;;5014012;28;20189;-56
2023/02/12 09:00:50;;;;;;;30.63;20.23;;;;;;;;;;5020675;28;20182;-55
2023/02/12 09:06:08;;;;;;;27.33;18.43;;;;;;;;;;5022123;28;20197;-55
2023/02/12 09:08:35;;;;;;;26.57;18.97;;;;;;;;;;5016016;28;20186;-55
2023/02/12 09:11:06;;;;;;;30.70;20.73;;;;;;;;;;5003197;28;20189;-55
2023/02/12 09:13:32;;;;;;;28.03;19.73;;;;;;;;;;5016311;28;20258;-55
2023/02/12 09:16:00;;;;;;;28.83;19.53;;;;;;;;;;5025859;28;20177;-55
2023/02/12 09:18:26;;;;;;;28.80;20.07;;;;;;;;;;5030039;28;20609;-55
2023/02/12 09:20:52;;;;;;;25.30;19.83;;;;;;;;;;5022172;28;20675;-55
2023/02/12 09:23:18;;;;;;;27.17;20.50;;;;;;;;;;5022612;28;20228;-55
2023/02/12 09:25:45;;;;;;;30.20;20.07;;;;;;;;;;5024169;28;20284;-55
2023/02/12 09:28:12;;;;;;;26.93;18.70;;;;;;;;;;5020467;28;20190;-55
2023/02/12 09:30:39;;;;;;;31.83;20.60;;;;;;;;;;5025760;28;20276;-55
2023/02/12 09:33:06;;;;;;;25.83;18.70;;;;;;;;;;5020213;28;20230;-55
2023/02/12 09:35:35;;;;;;;24.57;18.00;;;;;;;;;;5014782;28;20178;-54
2023/02/12 09:38:02;;;;;;;27.20;20.57;;;;;;;;;;5022177;28;20656;-54
2023/02/12 09:40:37;;;;;;;26.90;19.63;;;;;;;;;;5022072;28;20177;-55
2023/02/12 09:43:30;;;;;;;27.03;20.00;;;;;;;;;;5015200;28;20613;-55
2023/02/12 09:46:16;;;;;;;26.87;19.13;;;;;;;;;;4992294;28;20341;-55
2023/02/12 09:48:48;;;;;;;25.77;19.37;;;;;;;;;;5017505;28;20541;-56
2023/02/12 09:51:14;;;;;;;27.33;19.47;;;;;;;;;;5020695;28;20674;-55
2023/02/12 09:53:44;;;;;;;26.27;19.03;;;;;;;;;;5016162;28;20589;-55
2023/02/12 09:56:15;;;;;;;25.33;19.00;;;;;;;;;;5017406;28;20209;-55
2023/02/12 09:58:43;;;;;;;25.37;19.83;;;;;;;;;;5017436;28;20174;-55
2023/02/12 10:01:11;;;;;;;29.93;20.00;;;;;;;;;;5024040;28;20940;-55
2023/02/12 10:03:37;;;;;;;27.13;19.97;;;;;;;;;;5014819;28;20221;-55
2023/02/12 10:06:05;;;;;;;26.43;19.17;;;;;;;;;;5021361;28;20183;-55
2023/02/12 10:08:34;;;;;;;28.07;18.93;;;;;;;;;;5025425;28;20185;-55
2023/02/12 10:11:09;;;;;;;28.43;20.17;;;;;;;;;;5013249;28;20208;-55
2023/02/12 10:13:58;;;;;;;24.17;18.57;;;;;;;;;;5025423;28;20605;-54
2023/02/12 10:16:36;;;;;;;26.30;19.60;;;;;;;;;;4975500;28;20178;-55
2023/02/12 10:19:14;;;;;;;26.10;19.23;;;;;;;;;;5021095;28;20174;-55
2023/02/12 10:21:47;;;;;;;29.00;19.67;;;;;;;;;;5018186;28;20181;-55
2023/02/12 10:24:28;;;;;;;29.37;19.90;;;;;;;;;;5015873;28;20201;-56
2023/02/12 10:26:57;;;;;;;29.43;21.20;;;;;;;;;;5015417;28;20178;-55
2023/02/12 10:29:25;;;;;;;27.00;19.50;;;;;;;;;;5015569;28;20674;-54
2023/02/12 10:32:03;;;;;;;30.43;19.73;;;;;;;;;;5017151;28;20205;-55
2023/02/12 10:34:34;;;;;;;26.57;19.87;;;;;;;;;;5023408;28;20755;-55
2023/02/12 10:37:25;;;;;;;27.37;20.83;;;;;;;;;;5020379;28;20178;-55
2023/02/12 10:40:14;;;;;;;30.23;20.83;;;;;;;;;;5026229;28;20190;-55
2023/02/12 10:42:43;;;;;;;27.77;20.03;;;;;;;;;;5009702;28;20196;-55
2023/02/12 10:45:13;;;;;;;25.73;17.87;;;;;;;;;;5022406;28;20169;-55
2023/02/12 10:47:39;;;;;;;27.13;19.57;;;;;;;;;;5021705;28;20582;-55
2023/02/12 10:50:13;;;;;;;29.30;20.10;;;;;;;;;;5020613;28;20205;-55
2023/02/12 10:52:44;;;;;;;24.77;18.83;;;;;;;;;;5015326;28;20218;-55
2023/02/12 10:55:31;;;;;;;27.77;19.60;;;;;;;;;;5025595;28;20173;-55
2023/02/12 10:57:58;;;;;;;28.60;18.43;;;;;;;;;;5017458;28;20170;-54
2023/02/12 11:00:25;;;;;;;26.87;19.97;;;;;;;;;;5017477;28;20173;-55
2023/02/12 11:03:10;;;;;;;26.67;20.23;;;;;;;;;;5016233;28;20197;-55
2023/02/12 11:05:37;;;;;;;27.67;19.87;;;;;;;;;;5010987;28;20601;-55
2023/02/12 11:08:03;;;;;;;26.93;19.33;;;;;;;;;;5015970;28;20265;-55
2023/02/12 11:10:31;;;;;;;26.67;18.87;;;;;;;;;;5014351;28;20190;-55
2023/02/12 11:12:59;;;;;;;25.70;20.60;;;;;;;;;;5016726;28;20734;-55
2023/02/12 11:15:26;;;;;;;28.00;18.83;;;;;;;;;;5018352;28;20177;-56
2023/02/12 11:17:57;;;;;;;28.27;19.53;;;;;;;;;;5023936;28;20173;-54
2023/02/12 11:20:27;;;;;;;27.93;18.77;;;;;;;;;;5021685;28;20182;-55
2023/02/12 11:22:53;;;;;;;25.50;19.37;;;;;;;;;;5012048;28;20630;-56
2023/02/12 11:25:19;;;;;;;26.33;18.33;;;;;;;;;;5020977;28;20715;-55
2023/02/12 11:27:58;;;;;;;26.40;19.17;;;;;;;;;;5016753;28;20185;-55
2023/02/12 11:30:24;;;;;;;26.77;18.47;;;;;;;;;;5019317;28;20847;-55
2023/02/12 11:32:51;;;;;;;30.60;19.03;;;;;;;;;;5013483;28;20268;-55
2023/02/12 11:35:22;;;;;;;23.57;17.60;;;;;;;;;;5026366;28;20637;-56
2023/02/12 11:37:49;;;;;;;28.03;18.97;;;;;;;;;;5018799;28;20166;-55
2023/02/12 11:40:18;;;;;;;24.43;18.27;;;;;;;;;;5019779;28;20189;-55
2023/02/12 11:42:47;;;;;;;27.83;19.00;;;;;;;;;;5015497;28;20185;-56
2023/02/12 11:45:18;;;;;;;26.17;18.77;;;;;;;;;;5015502;28;20630;-55
2023/02/12 11:47:45;;;;;;;29.27;19.37;;;;;;;;;;5021521;28;20182;-56
2023/02/12 11:50:26;;;;;;;26.43;20.07;;;;;;;;;;5027575;28;20925;-54
2023/02/12 11:52:53;;;;;;;28.80;20.50;;;;;;;;;;5020848;28;20202;-54
2023/02/12 11:55:22;;;;;;;31.23;19.97;;;;;;;;;;5019258;28;20687;-54
2023/02/12 11:57:50;;;;;;;32.77;22.20;;;;;;;;;;5023447;28;20637;-55
2023/02/12 12:00:22;;;;;;;32.80;22.97;;;;;;;;;;5020078;28;20263;-55
2023/02/12 12:03:11;;;;;;;36.07;23.40;;;;;;;;;;5016549;28;20182;-55
2023/02/12 12:05:40;;;;;;;36.57;22.20;;;;;;;;;;5012727;28;20192;-55
2023/02/12 12:08:11;;;;;;;32.87;24.80;;;;;;;;;;5027020;28;20549;-55
2023/02/12 12:10:37;;;;;;;34.03;23.37;;;;;;;;;;5006942;28;20178;-55
2023/02/12 12:13:12;;;;;;;36.47;23.70;;;;;;;;;;5022547;28;20210;-55
2023/02/12 12:21:20;;;;;;;34.87;22.57;;;;;;;;;;5027744;28;20216;-56
2023/02/12 12:23:51;;;;;;;34.73;23.27;;;;;;;;;;5020584;28;20653;-55
2023/02/12 12:26:28;;;;;;;31.30;23.60;;;;;;;;;;5022241;28;20186;-56
2023/02/12 12:28:59;;;;;;;33.73;23.10;;;;;;;;;;5017327;28;20178;-56
2023/02/12 12:31:28;;;;;;;30.37;21.40;;;;;;;;;;5020161;28;20225;-56
2023/02/12 12:34:02;;;;;;;34.57;23.30;;;;;;;;;;5021380;28;20893;-56
2023/02/12 12:36:47;;;;;;;31.27;22.93;;;;;;;;;;5020599;28;20264;-57
2023/02/12 12:39:22;;;;;;;31.00;23.90;;;;;;;;;;5018436;28;20687;-57
2023/02/12 12:42:01;;;;;;;35.47;22.90;;;;;;;;;;5023746;28;20268;-57
2023/02/12 12:44:27;;;;;;;35.47;24.33;;;;;;;;;;5022779;28;20185;-56
2023/02/12 12:46:53;;;;;;;31.57;21.50;;;;;;;;;;5021565;28;20196;-56
2023/02/12 12:49:45;;;;;;;33.33;23.43;;;;;;;;;;5016458;28;20186;-56
2023/02/12 12:52:46;;;;;;;31.20;21.87;;;;;;;;;;5007235;28;20209;-56
2023/02/12 12:55:24;;;;;;;31.57;23.83;;;;;;;;;;4950611;28;20219;-57
2023/02/12 12:57:53;;;;;;;31.83;22.57;;;;;;;;;;5005839;28;20197;-57
2023/02/12 13:00:27;;;;;;;32.57;24.50;;;;;;;;;;5019121;28;20205;-57
2023/02/12 13:03:11;;;;;;;34.40;22.70;;;;;;;;;;5019433;28;20218;-57
2023/02/12 13:05:47;;;;;;;32.70;23.97;;;;;;;;;;5023069;28;20198;-53
2023/02/12 13:08:16;;;;;;;36.23;24.27;;;;;;;;;;5023531;28;20209;-52
2023/02/12 13:10:46;;;;;;;30.40;23.73;;;;;;;;;;5014348;28;20273;-53
2023/02/12 13:13:13;;;;;;;28.97;21.63;;;;;;;;;;5021121;28;20229;-53
2023/02/12 13:15:59;;;;;;;30.87;22.60;;;;;;;;;;5014644;28;20175;-53
2023/02/12 13:18:31;;;;;;;34.83;22.73;;;;;;;;;;5009885;28;20209;-53
2023/02/12 13:21:33;;;;;;;35.33;23.77;;;;;;;;;;5018927;28;20593;-53
2023/02/12 13:24:02;;;;;;;31.30;22.90;;;;;;;;;;4935904;29;20561;-53
2023/02/12 13:26:40;;;;;;;32.00;23.20;;;;;;;;;;5003589;28;20580;-52
2023/02/12 13:29:16;;;;;;;34.87;22.73;;;;;;;;;;5019495;28;20174;-52
2023/02/12 13:31:48;;;;;;;31.03;22.00;;;;;;;;;;5018157;28;20202;-53
2023/02/12 13:34:16;;;;;;;31.37;22.57;;;;;;;;;;5021663;28;20178;-52
2023/02/12 13:36:43;;;;;;;34.97;22.80;;;;;;;;;;5017179;28;20171;-53
2023/02/12 13:39:24;;;;;;;33.17;23.40;;;;;;;;;;5028456;28;20233;-59
2023/02/12 13:42:16;;;;;;;33.53;21.60;;;;;;;;;;5028533;28;20173;-56
2023/02/12 13:44:42;;;;;;;31.67;21.70;;;;;;;;;;5023632;28;20544;-56
2023/02/12 13:47:08;;;;;;;27.13;20.50;;;;;;;;;;5021279;28;20256;-56
2023/02/12 13:49:34;;;;;;;31.33;22.57;;;;;;;;;;5024977;28;20260;-55
2023/02/12 13:52:33;;;;;;;29.27;21.10;;;;;;;;;;5029883;28;20602;-56
2023/02/12 13:55:11;;;;;;;29.47;21.37;;;;;;;;;;4984648;28;20203;-55
2023/02/12 13:57:38;;;;;;;28.13;20.73;;;;;;;;;;5013963;28;20551;-55
2023/02/12 14:00:07;;;;;;;28.67;20.27;;;;;;;;;;5008299;28;20178;-56
2023/02/12 14:02:35;;;;;;;30.07;21.07;;;;;;;;;;5017807;28;20264;-56
2023/02/12 14:05:04;;;;;;;31.30;20.60;;;;;;;;;;5018204;28;20197;-56
2023/02/12 14:07:42;;;;;;;29.73;19.93;;;;;;;;;;5014336;28;20182;-56
2023/02/12 14:10:08;;;;;;;29.53;20.50;;;;;;;;;;5013910;28;20186;-56
2023/02/12 14:12:38;;;;;;;30.10;20.47;;;;;;;;;;5016536;28;20745;-56
2023/02/12 14:15:22;;;;;;;25.10;19.37;;;;;;;;;;5019237;28;20186;-56
2023/02/12 14:17:53;;;;;;;25.90;18.47;;;;;;;;;;5016693;28;20174;-56
2023/02/12 14:20:21;;;;;;;32.97;19.57;;;;;;;;;;5023876;28;20182;-56
2023/02/12 14:22:47;;;;;;;26.70;20.50;;;;;;;;;;5027074;28;20673;-56
2023/02/12 14:25:16;;;;;;;27.60;19.23;;;;;;;;;;5020369;28;20193;-56
2023/02/12 14:27:49;;;;;;;26.80;19.80;;;;;;;;;;5009588;28;20189;-56
2023/02/12 14:30:27;;;;;;;25.27;18.20;;;;;;;;;;5018710;28;20611;-56
2023/02/12 14:33:05;;;;;;;28.03;20.23;;;;;;;;;;5023674;28;20197;-56
2023/02/12 14:35:34;;;;;;;26.97;18.50;;;;;;;;;;5020108;28;20178;-56
2023/02/12 14:38:01;;;;;;;24.00;18.33;;;;;;;;;;5021083;28;20189;-56
2023/02/12 14:40:33;;;;;;;25.83;18.43;;;;;;;;;;5019824;28;20638;-56
2023/02/12 14:43:01;;;;;;;26.33;19.67;;;;;;;;;;5017808;28;20198;-56
2023/02/12 14:45:36;;;;;;;28.77;21.00;;;;;;;;;;5016341;28;20638;-56